| time (UTC) | temp C | wind direction | speed KPH | gust KPH | rain 1hr cm | rain 24hr cm | rain mn cm | humidity % | barometer mb |
| 20260906191551 | -17 | 319 | 9.7 | 16.1 | 0.00 | 0.08 | 0.00 | 1016.9 | |
| 20260906190151 | -17 | 321 | 8.0 | 14.5 | 0.00 | 0.08 | 0.00 | 1016.9 | |
| 20260906184548 | -17 | 273 | 8.0 | 20.9 | 0.00 | 0.08 | 0.00 | 1016.8 | |
| 20260906183048 | -17 | 8 | 4.8 | 14.5 | 0.00 | 0.08 | 0.00 | 1016.9 | |
| 20260906181545 | -17 | 32 | 6.4 | 14.5 | 0.00 | 0.08 | 0.00 | 1017.1 | |
| 20260906180033 | -17 | 314 | 8.0 | 16.1 | 0.00 | 0.08 | 0.00 | 1017.1 | |
| 20260906174530 | -17 | 298 | 8.0 | 14.5 | 0.00 | 0.08 | 0.00 | 1017.0 | |
| 20260906173024 | -17 | 307 | 8.0 | 17.7 | 0.00 | 0.08 | 0.00 | 1017.2 | |
| 20260906171520 | -17 | 249 | 8.0 | 17.7 | 0.00 | 0.08 | 0.00 | 1017.3 | |
| 20260906170018 | -17 | 333 | 6.4 | 16.1 | 0.00 | 0.08 | 0.00 | 1017.7 | |
| 20260906164520 | -17 | 305 | 9.7 | 16.1 | 0.00 | 0.08 | 0.00 | 1017.5 | |
| 20260906163019 | -17 | 271 | 6.4 | 14.5 | 0.00 | 0.08 | 0.00 | 1017.7 | |
| 20260906161516 | -17 | 250 | 6.4 | 14.5 | 0.00 | 0.08 | 0.00 | 1017.9 | |
| 20260906160016 | -17 | 324 | 6.4 | 14.5 | 0.00 | 0.10 | 0.00 | 1018.1 | |
| 20260906154515 | -17 | 279 | 8.0 | 17.7 | 0.00 | 0.10 | 0.00 | 1017.9 | |
| 20260906153022 | -17 | 305 | 4.8 | 14.5 | 0.00 | 0.10 | 0.00 | 1018.1 | |
| 20260906151507 | -17 | 311 | 9.7 | 17.7 | 0.00 | 0.10 | 0.00 | 1018.2 | |
| 20260906150003 | -17 | 280 | 4.8 | 12.9 | 0.00 | 0.13 | 0.00 | 1018.0 | |
| 20260906144559 | -17 | 259 | 9.7 | 16.1 | 0.00 | 0.13 | 0.00 | 1017.9 | |
| 20260906143058 | -17 | 297 | 6.4 | 16.1 | 0.00 | 0.13 | 0.00 | 1017.9 | |
| 20260906141551 | -17 | 291 | 6.4 | 12.9 | 0.00 | 0.13 | 0.00 | 1017.8 | |
| 20260906140051 | -17 | 283 | 4.8 | 11.3 | 0.00 | 0.13 | 0.00 | 1017.9 | |
| 20260906134542 | -17 | 302 | 6.4 | 14.5 | 0.00 | 0.15 | 0.00 | 1017.7 | |
| 20260906133043 | -17 | 319 | 4.8 | 9.7 | 0.00 | 0.15 | 0.00 | 1017.6 | |
| 20260906131534 | -17 | 261 | 4.8 | 8.0 | 0.00 | 0.15 | 0.00 | 1017.6 | |
| 20260906130031 | -17 | 292 | 4.8 | 9.7 | 0.00 | 0.15 | 0.00 | 1017.6 | |
| 20260906124626 | -17 | 252 | 3.2 | 6.4 | 0.00 | 0.15 | 0.00 | 1017.5 | |
| 20260906123031 | -17 | 285 | 3.2 | 8.0 | 0.00 | 0.15 | 0.00 | 1017.4 | |
| 20260906121516 | -17 | 298 | 0.0 | 3.2 | 0.00 | 0.15 | 0.00 | 1017.4 | |
| 20260906120012 | -17 | 247 | 0.0 | 0.0 | 0.00 | 0.20 | 0.00 | 1017.4 | |
| 20260906114506 | -17 | 252 | 0.0 | 3.2 | 0.00 | 0.20 | 0.00 | 1017.2 | |
| 20260906113003 | -17 | 252 | 0.0 | 3.2 | 0.00 | 0.20 | 0.00 | 1017.0 | |
| 20260906111558 | -17 | 250 | 0.0 | 0.0 | 0.00 | 0.20 | 0.00 | 1017.1 | |
| 20260906110054 | -17 | 250 | 0.0 | 0.0 | 0.00 | 0.20 | 0.00 | 1016.8 | |
| 20260906104549 | -17 | 250 | 0.0 | 3.2 | 0.00 | 0.23 | 0.00 | 1016.8 | |
| 20260906103054 | -17 | 250 | 0.0 | 0.0 | 0.00 | 0.23 | 0.00 | 1016.7 | |
| 20260906101541 | -17 | 250 | 0.0 | 0.0 | 0.00 | 0.23 | 0.00 | 1016.7 | |
| 20260906100037 | -17 | 249 | 0.0 | 1.6 | 0.00 | 0.23 | 0.00 | 1016.6 | |
| 20260906094532 | -17 | 249 | 0.0 | 1.6 | 0.00 | 0.25 | 0.00 | 1016.3 | |
| 20260906093027 | -17 | 250 | 0.0 | 3.2 | 0.00 | 0.25 | 0.00 | 1016.0 | |
| 20260906091523 | -17 | 249 | 0.0 | 4.8 | 0.00 | 0.25 | 0.00 | 1016.0 | |
| 20260906090020 | -17 | 265 | 0.0 | 4.8 | 0.00 | 0.28 | 0.00 | 1016.0 | |
| 20260906084514 | -17 | 254 | 0.0 | 4.8 | 0.00 | 0.28 | 0.00 | 1015.9 | |
| 20260906083011 | -17 | 234 | 0.0 | 4.8 | 0.00 | 0.28 | 0.00 | 1016.0 | |
| 20260906081506 | -17 | 263 | 0.0 | 4.8 | 0.00 | 0.28 | 0.00 | 1016.0 | |
| 20260906080002 | -17 | 269 | 0.0 | 4.8 | 0.00 | 0.30 | 0.00 | 1016.0 | |
| 20260906074558 | -17 | 238 | 0.0 | 6.4 | 0.00 | 0.30 | 0.00 | 1016.0 | |
| 20260906073055 | -17 | 263 | 0.0 | 4.8 | 0.00 | 0.30 | 0.00 | 1016.0 | |
| 20260906071549 | -17 | 248 | 0.0 | 1.6 | 0.00 | 0.30 | 0.00 | 1016.2 | |
| 20260906070049 | -17 | 254 | 0.0 | 1.6 | 0.00 | 0.30 | 0.00 | 1016.3 | |
| 20260906064548 | -17 | 254 | 0.0 | 3.2 | 0.00 | 0.30 | 0.00 | 1016.3 | |
| 20260906063047 | -17 | 257 | 0.0 | 4.8 | 0.00 | 0.30 | 0.00 | 1016.3 | |
| 20260906061547 | -17 | 309 | 0.0 | 1.6 | 0.00 | 0.30 | 0.00 | 1016.3 | |
| 20260906060043 | -17 | 309 | 0.0 | 1.6 | 0.00 | 0.30 | 0.00 | 1016.3 | |
| 20260906054539 | -17 | 309 | 0.0 | 0.0 | 0.00 | 0.33 | 0.00 | 1016.4 | |
| 20260906053033 | -17 | 309 | 0.0 | 0.0 | 0.00 | 0.33 | 0.00 | 1016.3 | |
| 20260906051529 | -17 | 310 | 0.0 | 3.2 | 0.00 | 0.33 | 0.00 | 1016.3 | |
| 20260906050027 | -17 | 309 | 0.0 | 1.6 | 0.00 | 0.38 | 0.33 | 1016.3 | |
| 20260906044520 | -17 | 309 | 0.0 | 0.0 | 0.00 | 0.38 | 0.33 | 1016.4 | |
| 20260906043022 | -17 | 309 | 0.0 | 1.6 | 0.00 | 0.38 | 0.33 | 1016.6 | |
| 20260906041512 | -17 | 309 | 0.0 | 0.0 | 0.00 | 0.38 | 0.33 | 1016.5 | |
| 20260906040007 | -17 | 309 | 0.0 | 0.0 | 0.00 | 0.41 | 0.33 | 1016.5 | |
| 20260906034502 | -17 | 309 | 0.0 | 0.0 | 0.00 | 0.41 | 0.33 | 1016.6 | |
| 20260906033058 | -17 | 309 | 0.0 | 0.0 | 0.00 | 0.41 | 0.33 | 1016.6 | |
| 20260906031555 | -17 | 309 | 0.0 | 0.0 | 0.00 | 0.41 | 0.33 | 1016.7 | |
| 20260906030050 | -17 | 309 | 0.0 | 3.2 | 0.00 | 0.41 | 0.33 | 1016.7 | |
| 20260906024544 | -17 | 307 | 0.0 | 3.2 | 0.00 | 0.43 | 0.33 | 1016.8 | |
| 20260906023045 | -17 | 242 | 0.0 | 4.8 | 0.00 | 0.43 | 0.33 | 1016.5 | |
| 20260906021543 | -17 | 271 | 1.6 | 4.8 | 0.00 | 0.43 | 0.33 | 1016.3 | |
| 20260906020031 | -17 | 265 | 0.0 | 3.2 | 0.00 | 0.43 | 0.33 | 1015.7 | |
| 20260906014528 | -17 | 264 | 0.0 | 4.8 | 0.00 | 0.46 | 0.33 | 1015.3 | |
| 20260906013034 | -17 | 276 | 0.0 | 6.4 | 0.00 | 0.46 | 0.33 | 1014.8 | |
| 20260906011520 | -17 | 262 | 1.6 | 9.7 | 0.00 | 0.46 | 0.33 | 1014.5 | |
| 20260906010018 | -17 | 257 | 3.2 | 11.3 | 0.00 | 0.51 | 0.33 | 1014.4 | |
| 20260906004513 | -17 | 262 | 1.6 | 8.0 | 0.00 | 0.51 | 0.33 | 100 | 1014.0 |
| 20260906003015 | -17 | 251 | 4.8 | 14.5 | 0.00 | 0.51 | 0.33 | 1013.7 | |
| 20260906001506 | -17 | 255 | 8.0 | 19.3 | 0.00 | 0.51 | 0.33 | 66 | 1013.4 |
| 20260906000059 | -17 | 250 | 4.8 | 11.3 | 0.00 | 0.51 | 0.33 | 1013.7 | |
| 20260905234556 | -17 | 217 | 4.8 | 9.7 | 0.00 | 0.56 | 0.33 | 100 | 1013.9 |
| 20260905233051 | -17 | 245 | 4.8 | 9.7 | 0.03 | 0.56 | 0.33 | 100 | 1013.6 |
| 20260905231548 | 27 | 237 | 3.2 | 9.7 | 0.03 | 0.56 | 0.33 | 100 | 1013.5 |
| 20260905230043 | -17 | 271 | 8.0 | 17.7 | 0.03 | 0.56 | 0.33 | 1013.2 | |
| 20260905224540 | -17 | 266 | 8.0 | 16.1 | 0.03 | 0.58 | 0.33 | 100 | 1013.4 |
| 20260905223033 | 28 | 259 | 8.0 | 14.5 | 0.03 | 0.56 | 0.30 | 63 | 1013.2 |
| 20260905221529 | 28 | 216 | 6.4 | 14.5 | 0.03 | 0.56 | 0.30 | 1013.5 | |
| 20260905220027 | 28 | 282 | 6.4 | 17.7 | 0.03 | 0.56 | 0.30 | 64 | 1013.8 |
| 20260905214523 | -17 | 249 | 3.2 | 17.7 | 0.03 | 0.58 | 0.30 | 100 | 1013.4 |
| 20260905213020 | 28 | 238 | 4.8 | 17.7 | 0.00 | 0.56 | 0.28 | 1013.5 | |
| 20260905211516 | 27 | 250 | 8.0 | 16.1 | 0.00 | 0.56 | 0.28 | 66 | 1013.9 |
| 20260905210012 | -17 | 239 | 6.4 | 14.5 | 0.00 | 0.61 | 0.28 | 1014.4 | |
| 20260905204511 | -17 | 283 | 1.6 | 11.3 | 0.00 | 0.61 | 0.28 | 66 | 1014.6 |
| 20260905203007 | -17 | 217 | 1.6 | 11.3 | 0.00 | 0.61 | 0.28 | 1014.9 | |
| 20260905201503 | -17 | 184 | 0.0 | 9.7 | 0.03 | 0.61 | 0.28 | 1015.1 | |
| 20260905194554 | -17 | 272 | 1.6 | 11.3 | 0.03 | 0.64 | 0.28 | 1015.7 | |
| 20260905193051 | -17 | 277 | 3.2 | 9.7 | 0.03 | 0.64 | 0.28 | 1015.6 |